Main page
METAR-TAF:

METAR-TAF

Airports :

A12-cpp, Netherlands

Oil platform

latitude: 55-23-57N, longitude: 3-48-37E, elevation: 33 m

Current weather observation

The report was made 22 minutes ago, at 18:25 UTC
Wind 7 kt from the North/Northeast, varying between North and East/Northeast
Temperature 6°C
Humidity 93%
Pressure 1027 hPa
Visibility 10 km or more

METAR: EHAK 261825Z AUTO 03007KT 350V070 9999 OVC003/// 06/05 Q1027

Time: 20:47 (18:47 UTC)


TAF: missing

Weather observations and forecasts of more than 4000 airports (METAR and TAF reports).

The available stations are represented by yellow and red dots on the map.

Hover mouse over dot to see the name of the station.

Then click to see weather observations and forecasts.

To change the map : click on the green buttons with a black cross to zoom in, on the green button with a dash to zoom out, or on the green arrows for adjacent maps.


METAR-TAF: